Simi Valley, California
Current Conditions -  °F | °C
As of 12:51 AM on Friday 24 Oct 2014 (Local Time) from KVNY Reporting Station
Clear Clear  
Wind Chill: 62°   Ceiling: Unl
Heat Index: 62°   Visibility: 10mi
Dew Point: 39°   Wind: 0mph
Humidity: 43%   Direction: NA
Pressure: 29.98"   Gusts: NA
Location:  34.29°N, 118.71°W
Report Text: KVNY 240751Z 00000KT 10SM CLR 17/04 A2998 RMK AO2 SLP144 T01670039 403220139
Loading
Personal Weather Stations






























Interactive Weather Map
Tropical Storm Tracking
New forecast layout! Learn more

10-Day Weather Forecast

Advertisements
Track Severe Weather on mobile